createdAt,value
2022-12-12T00:01:07.403Z,57368.55
2022-12-12T00:03:38.324Z,57368.55
2022-12-12T00:06:08.634Z,57381.27
2022-12-12T00:08:39.053Z,57352.67
2022-12-12T00:11:10.019Z,57352.67
2022-12-12T00:13:40.954Z,57368.55
2022-12-12T00:16:12.299Z,57416.21
2022-12-12T00:18:43.014Z,57416.21
2022-12-12T00:21:17.060Z,57360.08
2022-12-12T00:23:47.974Z,57360.08
2022-12-12T00:26:41.291Z,57372.79
2022-12-12T00:29:12.189Z,57364.32
2022-12-12T00:31:42.582Z,57364.32
2022-12-12T00:34:12.872Z,57382.32
2022-12-12T00:36:43.269Z,57361.14
2022-12-12T00:39:18.181Z,57364.32
2022-12-12T00:41:45.879Z,57385.50
2022-12-12T00:44:16.580Z,57375.97
2022-12-12T00:46:47.004Z,57365.38
2022-12-12T00:49:17.156Z,57397.15
2022-12-12T00:51:47.399Z,57360.08
2022-12-12T00:54:17.825Z,57360.08
2022-12-12T00:56:48.102Z,57346.32
2022-12-12T00:59:18.613Z,57384.44
2022-12-12T01:01:49.018Z,57384.44
2022-12-12T01:04:19.320Z,57366.44
2022-12-12T01:06:49.513Z,57365.38
2022-12-12T01:09:20.183Z,57382.32
2022-12-12T01:11:50.722Z,57382.32
2022-12-12T01:14:21.094Z,57348.43
2022-12-12T01:16:51.425Z,57379.15
2022-12-12T01:19:21.741Z,57379.15
2022-12-12T01:21:52.181Z,57335.73
2022-12-12T01:24:22.520Z,57335.73
2022-12-12T01:26:52.900Z,57362.20
2022-12-12T01:29:23.140Z,57362.20
2022-12-12T01:31:54.450Z,57349.49
2022-12-12T01:34:24.746Z,57349.49
2022-12-12T01:36:55.254Z,57350.55
2022-12-12T01:39:25.509Z,57356.91
2022-12-12T01:41:55.779Z,57398.21
2022-12-12T01:44:58.884Z,57357.96
2022-12-12T01:47:29.176Z,57368.55
2022-12-12T01:50:08.039Z,57368.55
2022-12-12T01:52:44.341Z,57375.97
2022-12-12T01:55:17.579Z,57365.38
2022-12-12T01:57:51.041Z,57378.09
2022-12-12T02:00:21.930Z,57380.21
2022-12-12T02:02:53.073Z,57380.21
2022-12-12T02:05:40.766Z,57379.15
2022-12-12T02:08:12.622Z,57379.15
2022-12-12T02:10:45.085Z,57389.74
2022-12-12T02:13:21.099Z,57368.55
2022-12-12T02:15:57.049Z,57386.56
2022-12-12T02:18:36.913Z,57368.55
2022-12-12T02:21:34.008Z,57368.55
2022-12-12T02:24:25.764Z,57371.73
2022-12-12T02:26:58.311Z,57359.03
2022-12-12T02:29:40.432Z,57359.03
2022-12-12T02:32:34.060Z,57363.26
2022-12-12T02:35:23.752Z,57373.85
2022-12-12T02:38:19.228Z,57346.32
2022-12-12T02:41:05.692Z,57354.79
2022-12-12T02:43:55.074Z,57354.79
2022-12-12T02:46:52.104Z,57356.91
2022-12-12T02:49:27.847Z,57384.44
2022-12-12T02:51:59.477Z,57384.44
2022-12-12T02:54:29.965Z,57361.14
2022-12-12T02:57:02.202Z,57354.79
2022-12-12T02:59:35.550Z,57354.79
2022-12-12T03:02:14.413Z,57362.20
2022-12-12T03:05:05.767Z,57366.44
2022-12-12T03:07:41.688Z,57366.44
2022-12-12T03:10:26.841Z,57378.09
2022-12-12T03:13:00.026Z,57382.32
2022-12-12T03:15:58.819Z,57359.03
2022-12-12T03:18:57.263Z,57359.03
2022-12-12T03:21:33.161Z,57362.20
2022-12-12T03:27:05.911Z,57402.45
2022-12-12T03:29:39.063Z,57363.26
2022-12-12T03:32:15.077Z,57372.79
2022-12-12T03:34:48.246Z,57365.38
2022-12-12T03:37:23.813Z,57365.38
2022-12-12T03:39:59.751Z,57372.79
2022-12-12T03:42:41.519Z,57363.26
2022-12-12T03:45:20.940Z,57356.91
2022-12-12T03:47:59.887Z,57387.62
2022-12-12T03:50:33.133Z,57388.68
2022-12-12T03:53:12.416Z,57377.03
2022-12-12T03:55:52.239Z,57370.68
2022-12-12T03:58:34.151Z,57373.85
2022-12-12T04:01:07.522Z,57373.85
2022-12-12T04:04:00.531Z,57372.79
2022-12-12T04:06:55.690Z,57362.20
2022-12-12T04:09:27.888Z,57374.91
2022-12-12T04:12:17.741Z,57374.91
2022-12-12T04:14:51.640Z,57367.50
2022-12-12T04:17:24.868Z,57369.62
2022-12-12T04:20:03.901Z,57372.79
2022-12-12T04:22:37.428Z,57372.79
2022-12-12T04:25:19.937Z,57385.50
2022-12-12T04:27:53.202Z,57385.50
2022-12-12T04:30:23.647Z,57371.73
2022-12-12T04:33:11.946Z,57383.38
2022-12-12T04:36:05.841Z,57360.08
2022-12-12T04:38:38.632Z,57372.79
2022-12-12T04:41:12.025Z,57364.32
2022-12-12T04:43:44.675Z,57367.50
2022-12-12T04:46:17.887Z,57404.57
2022-12-12T04:48:57.205Z,57352.67
2022-12-12T04:51:30.798Z,57369.62
2022-12-12T04:54:23.445Z,57351.61
2022-12-12T04:56:56.601Z,57351.61
2022-12-12T04:59:27.943Z,57388.68
2022-12-12T05:02:10.085Z,57388.68
2022-12-12T05:05:01.755Z,57357.96
2022-12-12T05:07:39.794Z,57399.27
2022-12-12T05:10:10.416Z,57399.27
2022-12-12T05:12:46.632Z,57391.86
2022-12-12T05:15:19.255Z,57349.49
2022-12-12T05:17:55.242Z,57383.38
2022-12-12T05:20:25.625Z,57370.68
2022-12-12T05:22:56.783Z,57364.32
2022-12-12T05:25:47.874Z,57369.62
2022-12-12T05:28:18.221Z,57355.85
2022-12-12T05:30:48.630Z,57351.61
2022-12-12T05:33:19.053Z,57387.62
2022-12-12T05:35:49.417Z,57387.62
2022-12-12T05:38:19.690Z,57374.91
2022-12-12T05:40:50.188Z,57374.91
2022-12-12T05:43:20.501Z,57354.79
2022-12-12T05:45:50.916Z,57363.26
2022-12-12T05:48:24.518Z,57403.51
2022-12-12T05:50:54.297Z,57366.44
2022-12-12T05:53:24.682Z,57384.44
2022-12-12T05:55:54.822Z,57379.15
2022-12-12T05:58:25.800Z,57395.03
2022-12-12T06:01:01.623Z,57365.38
2022-12-12T06:03:28.417Z,57384.44
2022-12-12T06:05:58.869Z,57361.14
2022-12-12T06:08:29.624Z,57375.97
2022-12-12T06:11:00.215Z,57382.32
2022-12-12T06:13:37.376Z,57378.09
2022-12-12T06:16:13.091Z,57371.73
2022-12-12T06:18:43.523Z,57388.68
2022-12-12T06:21:14.146Z,57367.50
2022-12-12T06:23:44.453Z,57367.50
2022-12-12T06:26:16.367Z,57380.21
2022-12-12T06:28:47.295Z,57391.86
2022-12-12T06:31:19.369Z,57379.15
2022-12-12T06:33:49.669Z,57379.15
2022-12-12T06:36:23.755Z,57366.44
2022-12-12T06:38:58.119Z,57371.73
2022-12-12T06:41:31.430Z,57373.85
2022-12-12T06:44:02.361Z,57354.79
2022-12-12T06:46:32.834Z,57366.44
2022-12-12T06:49:03.093Z,57366.44
2022-12-12T06:51:34.025Z,57367.50
2022-12-12T06:54:04.614Z,57360.08
2022-12-12T06:56:35.812Z,57354.79
2022-12-12T06:59:06.442Z,57381.27
2022-12-12T07:01:36.826Z,57365.38
2022-12-12T07:04:07.861Z,57372.79
2022-12-12T07:06:38.363Z,57384.44
2022-12-12T07:09:09.089Z,57329.37
2022-12-12T07:11:40.986Z,57355.85
2022-12-12T07:14:11.867Z,57365.38
2022-12-12T07:16:42.539Z,57352.67
2022-12-12T07:19:12.886Z,57352.67
2022-12-12T07:21:44.027Z,57354.79
2022-12-12T07:24:14.574Z,57354.79
2022-12-12T07:26:45.012Z,57362.20
2022-12-12T07:29:15.310Z,57362.20
2022-12-12T07:31:45.579Z,57372.79
2022-12-12T07:34:15.956Z,57388.68
2022-12-12T07:36:46.193Z,57383.38
2022-12-12T07:39:20.871Z,57375.97
2022-12-12T07:41:49.439Z,57351.61
2022-12-12T07:44:19.915Z,57351.61
2022-12-12T07:46:50.409Z,57345.26
2022-12-12T07:49:20.717Z,57372.79
2022-12-12T07:51:50.896Z,57391.86
2022-12-12T07:54:21.261Z,57382.32
2022-12-12T07:56:51.882Z,57391.86
2022-12-12T07:59:22.580Z,57391.86
2022-12-12T08:01:59.341Z,57360.08
2022-12-12T08:04:35.852Z,57375.97
2022-12-12T08:07:10.309Z,57367.50
2022-12-12T08:09:43.487Z,57367.50
2022-12-12T08:12:22.858Z,57397.15
2022-12-12T08:14:58.135Z,57378.09
2022-12-12T08:17:29.154Z,57364.32
2022-12-12T08:19:59.911Z,57373.85
2022-12-12T08:22:30.257Z,57388.68
2022-12-12T08:25:01.365Z,57388.68
2022-12-12T08:27:32.385Z,57380.21
2022-12-12T08:30:02.905Z,57380.21
2022-12-12T08:32:33.801Z,57367.50
2022-12-12T08:35:04.261Z,57366.44
2022-12-12T08:37:34.672Z,57375.97
2022-12-12T08:40:05.729Z,57380.21
2022-12-12T08:42:36.174Z,57367.50
2022-12-12T08:45:07.298Z,57367.50
2022-12-12T08:47:37.967Z,57389.74
2022-12-12T08:50:08.614Z,57389.74
2022-12-12T08:52:40.148Z,57355.85
2022-12-12T08:55:10.958Z,57405.62
2022-12-12T08:57:41.455Z,57357.96
2022-12-12T09:00:12.798Z,57375.97
2022-12-12T09:02:44.078Z,57375.97
2022-12-12T09:05:14.951Z,57395.03
2022-12-12T09:07:46.194Z,57372.79
2022-12-12T09:10:16.708Z,57372.79
2022-12-12T09:12:47.333Z,57398.21
2022-12-12T09:15:18.058Z,57398.21
2022-12-12T09:17:48.349Z,57387.62
2022-12-12T09:20:18.728Z,57399.27
2022-12-12T09:22:49.451Z,57418.33
2022-12-12T09:25:19.884Z,57385.50
2022-12-12T09:27:50.373Z,57407.74
2022-12-12T09:30:20.841Z,57407.74
2022-12-12T09:32:51.239Z,57409.86
2022-12-12T09:35:21.481Z,57398.21
2022-12-12T09:37:53.330Z,57398.21
2022-12-12T09:40:50.381Z,57411.98
2022-12-12T09:43:29.642Z,57375.97
2022-12-12T09:46:03.024Z,57409.86
2022-12-12T09:48:47.944Z,57385.50
2022-12-12T09:51:23.178Z,57387.62
2022-12-12T09:56:56.295Z,57367.50
2022-12-12T09:59:29.638Z,57403.51
2022-12-12T10:02:03.306Z,57391.86
2022-12-12T10:04:59.443Z,57391.86
2022-12-12T10:07:47.436Z,57367.50
2022-12-12T10:10:37.835Z,57367.50
2022-12-12T10:13:17.582Z,57360.08
2022-12-12T10:15:50.851Z,57378.09
2022-12-12T10:18:36.152Z,57378.09
2022-12-12T10:21:09.400Z,57389.74
2022-12-12T10:23:51.816Z,57389.74
2022-12-12T10:26:27.967Z,57389.74
2022-12-12T10:32:08.256Z,57378.09
2022-12-12T10:35:17.825Z,57378.09
2022-12-12T10:40:54.129Z,57386.56
2022-12-12T10:43:27.396Z,57386.56
2022-12-12T10:46:16.123Z,57372.79
2022-12-12T10:48:49.320Z,57372.79
2022-12-12T10:51:21.901Z,57369.62
2022-12-12T10:53:53.590Z,57397.15
2022-12-12T10:56:28.189Z,57373.85
2022-12-12T10:59:00.634Z,57373.85
2022-12-12T11:02:07.779Z,57374.91
2022-12-12T11:04:06.410Z,57377.03
2022-12-12T11:06:48.818Z,57377.03
2022-12-12T11:09:22.848Z,57377.03
2022-12-12T11:12:10.688Z,57377.03
2022-12-12T11:14:52.284Z,57344.20
2022-12-12T11:17:25.854Z,57384.44
2022-12-12T11:19:59.144Z,57353.73
2022-12-12T11:25:31.098Z,57375.97
2022-12-12T11:28:06.830Z,57385.50
2022-12-12T11:30:38.767Z,57365.38
2022-12-12T11:33:15.124Z,57403.51
2022-12-12T11:35:47.850Z,57403.51
2022-12-12T11:38:21.100Z,57396.09
2022-12-12T11:41:03.547Z,57389.74
2022-12-12T11:43:37.151Z,57389.74
2022-12-12T11:46:18.859Z,57393.98
2022-12-12T11:49:10.371Z,57360.08
2022-12-12T11:51:43.607Z,57360.08
2022-12-12T11:54:25.856Z,57397.15
2022-12-12T11:57:26.333Z,57388.68
2022-12-12T12:00:16.931Z,57401.39
2022-12-12T12:02:59.306Z,57388.68
2022-12-12T12:05:59.136Z,57382.32
2022-12-12T12:08:41.414Z,57382.32
2022-12-12T12:11:34.427Z,57400.33
2022-12-12T12:14:16.749Z,57372.79
2022-12-12T12:17:12.042Z,57374.91
2022-12-12T12:20:09.470Z,57393.98
2022-12-12T12:23:13.556Z,57363.26
2022-12-12T12:25:55.721Z,57403.51
2022-12-12T12:28:47.900Z,57403.51
2022-12-12T12:31:37.457Z,57409.86
2022-12-12T12:34:16.482Z,57390.80
2022-12-12T12:37:02.030Z,57390.80
2022-12-12T12:39:47.224Z,57369.62
2022-12-12T12:42:38.283Z,57382.32
2022-12-12T12:45:28.242Z,57395.03
2022-12-12T12:48:19.723Z,57395.03
2022-12-12T12:53:41.096Z,57362.20
2022-12-12T12:56:38.594Z,57371.73
2022-12-12T12:59:16.547Z,57378.09
2022-12-12T13:01:49.794Z,57379.15
2022-12-12T13:07:49.665Z,57393.98
2022-12-12T13:10:25.058Z,57393.98
2022-12-12T13:13:08.028Z,57395.03
2022-12-12T13:15:45.559Z,57380.21
2022-12-12T13:18:17.825Z,57414.10
2022-12-12T13:21:06.194Z,57388.68
2022-12-12T13:23:45.399Z,57388.68
2022-12-12T13:26:30.548Z,57387.62
2022-12-12T13:29:04.042Z,57387.62
2022-12-12T13:31:43.518Z,57388.68
2022-12-12T13:34:37.091Z,57389.74
2022-12-12T13:37:08.309Z,57363.26
2022-12-12T13:39:39.485Z,57400.33
2022-12-12T13:42:14.716Z,57411.98
2022-12-12T13:44:48.304Z,57389.74
2022-12-12T13:47:27.544Z,57389.74
2022-12-12T13:50:00.922Z,57389.74
2022-12-12T13:52:45.536Z,57380.21
2022-12-12T13:55:21.224Z,57397.15
2022-12-12T13:58:03.452Z,57379.15
2022-12-12T14:00:36.290Z,57427.87
2022-12-12T14:03:16.793Z,57382.32
2022-12-12T14:05:50.577Z,57375.97
2022-12-12T14:08:29.958Z,57395.03
2022-12-12T14:11:03.001Z,57411.98
2022-12-12T14:13:45.816Z,57397.15
2022-12-12T14:16:22.098Z,57397.15
2022-12-12T14:19:13.230Z,57407.74
2022-12-12T14:21:47.296Z,57407.74
2022-12-12T14:24:40.644Z,57403.51
2022-12-12T14:27:11.592Z,57395.03
2022-12-12T14:29:44.554Z,57421.51
2022-12-12T14:35:33.597Z,57387.62
2022-12-12T14:38:30.571Z,57383.38
2022-12-12T14:41:09.125Z,57417.27
2022-12-12T14:43:42.758Z,57398.21
2022-12-12T14:46:18.570Z,57421.51
2022-12-12T14:48:48.907Z,57406.68
2022-12-12T14:51:30.052Z,57388.68
2022-12-12T14:56:53.509Z,57390.80
2022-12-12T14:59:32.931Z,57403.51
2022-12-12T15:02:08.850Z,57399.27
2022-12-12T15:04:40.757Z,57399.27
2022-12-12T15:07:30.412Z,57399.27
2022-12-12T15:10:00.985Z,57404.57
2022-12-12T15:12:36.866Z,57408.80
2022-12-12T15:15:14.827Z,57393.98
2022-12-12T15:17:48.072Z,57393.98
2022-12-12T15:20:29.199Z,57416.21
2022-12-12T15:23:04.970Z,57414.10
2022-12-12T15:28:36.998Z,57408.80
2022-12-12T15:31:09.035Z,57408.80
2022-12-12T15:33:40.916Z,57422.57
2022-12-12T15:36:37.790Z,57431.04
2022-12-12T15:39:16.072Z,57431.04
2022-12-12T15:41:48.043Z,57411.98
2022-12-12T15:44:20.853Z,57411.98
2022-12-12T15:46:51.639Z,57423.63
2022-12-12T15:49:41.550Z,57423.63
2022-12-12T15:52:24.515Z,57405.62
2022-12-12T15:55:00.896Z,57390.80
2022-12-12T15:57:34.921Z,57398.21
2022-12-12T16:00:26.344Z,57398.21
2022-12-12T16:03:02.582Z,57407.74
2022-12-12T16:05:36.134Z,57413.04
2022-12-12T16:08:32.082Z,57422.57
2022-12-12T16:11:07.257Z,57422.57
2022-12-12T16:14:01.897Z,57418.33
2022-12-12T16:16:41.129Z,57435.28
2022-12-12T16:19:37.384Z,57396.09
2022-12-12T16:22:19.719Z,57382.32
2022-12-12T16:24:53.351Z,57411.98
2022-12-12T16:27:23.830Z,57425.75
2022-12-12T16:29:54.819Z,57425.75
2022-12-12T16:32:25.676Z,57402.45
2022-12-12T16:34:56.886Z,57404.57
2022-12-12T16:37:28.572Z,57416.21
2022-12-12T16:39:59.065Z,57393.98
2022-12-12T16:42:29.558Z,57410.92
2022-12-12T16:44:59.925Z,57409.86
2022-12-12T16:47:34.313Z,57407.74
2022-12-12T16:50:08.408Z,57407.74
2022-12-12T16:52:39.520Z,57390.80
2022-12-12T16:55:18.657Z,57397.15
2022-12-12T16:57:49.256Z,57397.15
2022-12-12T17:00:19.956Z,57413.04
2022-12-12T17:02:50.670Z,57388.68
2022-12-12T17:05:24.004Z,57425.75
2022-12-12T17:07:55.204Z,57425.75
2022-12-12T17:10:26.996Z,57407.74
2022-12-12T17:12:57.584Z,57426.80
2022-12-12T17:15:30.788Z,57403.51
2022-12-12T17:18:01.503Z,57395.03
2022-12-12T17:20:37.538Z,57395.03
2022-12-12T17:23:29.173Z,57410.92
2022-12-12T17:26:04.286Z,57418.33
2022-12-12T17:28:35.030Z,57418.33
2022-12-12T17:31:09.664Z,57414.10
2022-12-12T17:33:49.931Z,57406.68
2022-12-12T17:36:16.582Z,57406.68
2022-12-12T17:38:47.952Z,57393.98
2022-12-12T17:41:18.476Z,57393.98
2022-12-12T17:43:55.420Z,57414.10
2022-12-12T17:46:23.127Z,57411.98
2022-12-12T17:48:53.589Z,57398.21
2022-12-12T17:51:24.220Z,57398.21
2022-12-12T17:53:55.679Z,57389.74
2022-12-12T17:56:28.502Z,57408.80
2022-12-12T17:59:01.349Z,57434.22
2022-12-12T18:01:32.126Z,57372.79
2022-12-12T18:04:05.189Z,57372.79
2022-12-12T18:06:36.100Z,57395.03
2022-12-12T18:09:06.872Z,57406.68
2022-12-12T18:11:41.087Z,57403.51
2022-12-12T18:14:16.356Z,57424.69
2022-12-12T18:16:48.859Z,57388.68
2022-12-12T18:19:20.944Z,57387.62
2022-12-12T18:22:00.821Z,57387.62
2022-12-12T18:24:27.979Z,57416.21
2022-12-12T18:27:00.249Z,57401.39
2022-12-12T18:29:38.166Z,57404.57
2022-12-12T18:32:08.684Z,57405.62
2022-12-12T18:34:39.472Z,57423.63
2022-12-12T18:37:10.596Z,57415.16
2022-12-12T18:39:41.423Z,57404.57
2022-12-12T18:42:12.065Z,57425.75
2022-12-12T18:44:42.944Z,57399.27
2022-12-12T18:47:13.200Z,57397.15
2022-12-12T18:49:44.166Z,57389.74
2022-12-12T18:52:16.277Z,57414.10
2022-12-12T18:54:48.592Z,57389.74
2022-12-12T18:57:19.468Z,57389.74
2022-12-12T18:59:50.289Z,57426.80
2022-12-12T19:02:21.006Z,57415.16
2022-12-12T19:04:51.825Z,57438.46
2022-12-12T19:07:22.199Z,57438.46
2022-12-12T19:09:53.082Z,57413.04
2022-12-12T19:12:26.276Z,57411.98
2022-12-12T19:15:16.322Z,57420.45
2022-12-12T19:17:29.354Z,57420.45
2022-12-12T19:20:00.754Z,57428.92
2022-12-12T19:22:44.809Z,57409.86
2022-12-12T19:25:05.278Z,57405.62
2022-12-12T19:27:36.091Z,57375.97
2022-12-12T19:30:07.689Z,57416.21
2022-12-12T19:32:38.161Z,57435.28
2022-12-12T19:35:09.140Z,57405.62
2022-12-12T19:37:39.576Z,57436.34
2022-12-12T19:40:30.475Z,57400.33
2022-12-12T19:43:01.308Z,57425.75
2022-12-12T19:45:31.649Z,57425.75
2022-12-12T19:48:02.091Z,57384.44
2022-12-12T19:50:34.364Z,57419.39
2022-12-12T19:53:04.841Z,57419.39
2022-12-12T19:55:35.893Z,57386.56
2022-12-12T19:58:06.284Z,57413.04
2022-12-12T20:00:37.447Z,57416.21
2022-12-12T20:03:08.656Z,57409.86
2022-12-12T20:05:39.270Z,57409.86
2022-12-12T20:08:09.650Z,57416.21
2022-12-12T20:10:40.721Z,57440.57
2022-12-12T20:13:11.947Z,57413.04
2022-12-12T20:15:42.444Z,57424.69
2022-12-12T20:18:16.366Z,57424.69
2022-12-12T20:20:45.365Z,57433.16
2022-12-12T20:23:15.630Z,57409.86
2022-12-12T20:25:46.035Z,57435.28
2022-12-12T20:28:16.660Z,57420.45
2022-12-12T20:30:53.247Z,57423.63
2022-12-12T20:33:21.554Z,57440.57
2022-12-12T20:35:52.145Z,57414.10
2022-12-12T20:38:23.136Z,57459.64
2022-12-12T20:40:53.483Z,57414.10
2022-12-12T20:43:23.799Z,57431.04
2022-12-12T20:45:56.569Z,57408.80
2022-12-12T20:48:27.146Z,57401.39
2022-12-12T20:51:00.767Z,57404.57
2022-12-12T20:53:36.319Z,57414.10
2022-12-12T20:58:58.833Z,57415.16
2022-12-12T21:01:50.103Z,57439.52
2022-12-12T21:04:20.651Z,57426.80
2022-12-12T21:06:51.883Z,57451.16
2022-12-12T21:09:25.849Z,57422.57
2022-12-12T21:11:56.618Z,57422.57
2022-12-12T21:14:28.300Z,57407.74
2022-12-12T21:16:58.997Z,57440.57
2022-12-12T21:19:30.670Z,57408.80
2022-12-12T21:22:01.088Z,57408.80
2022-12-12T21:24:31.619Z,57406.68
2022-12-12T21:27:02.637Z,57443.75
2022-12-12T21:29:33.339Z,57414.10
2022-12-12T21:32:04.150Z,57411.98
2022-12-12T21:34:38.125Z,57422.57
2022-12-12T21:37:08.850Z,57433.16
2022-12-12T21:39:39.391Z,57433.16
2022-12-12T21:42:09.737Z,57405.62
2022-12-12T21:44:45.533Z,57425.75
2022-12-12T21:47:13.189Z,57425.75
2022-12-12T21:49:43.506Z,57423.63
2022-12-12T21:52:13.821Z,57423.63
2022-12-12T21:54:44.388Z,57429.98
2022-12-12T21:57:14.875Z,57439.52
2022-12-12T21:59:45.636Z,57428.92
2022-12-12T22:02:16.263Z,57435.28
2022-12-12T22:04:46.757Z,57428.92
2022-12-12T22:07:17.197Z,57439.52
2022-12-12T22:09:57.834Z,57409.86
2022-12-12T22:12:19.853Z,57421.51
2022-12-12T22:14:50.233Z,57446.93
2022-12-12T22:17:20.604Z,57405.62
2022-12-12T22:19:51.095Z,57426.80
2022-12-12T22:22:21.447Z,57426.80
2022-12-12T22:24:52.322Z,57421.51
2022-12-12T22:27:22.708Z,57419.39
2022-12-12T22:29:53.035Z,57426.80
2022-12-12T22:32:23.441Z,57437.39
2022-12-12T22:34:53.941Z,57424.69
2022-12-12T22:37:25.957Z,57415.16
2022-12-12T22:39:56.299Z,57441.63
2022-12-12T22:42:26.602Z,57438.46
2022-12-12T22:44:57.005Z,57438.46
2022-12-12T22:47:27.355Z,57422.57
2022-12-12T22:49:58.709Z,57452.23
2022-12-12T22:52:29.138Z,57435.28
2022-12-12T22:54:59.442Z,57422.57
2022-12-12T22:57:29.697Z,57427.87
2022-12-12T23:00:00.534Z,57420.45
2022-12-12T23:02:31.221Z,57432.10
2022-12-12T23:05:01.937Z,57432.10
2022-12-12T23:07:33.222Z,57423.63
2022-12-12T23:10:04.189Z,57427.87
2022-12-12T23:12:34.767Z,57427.87
2022-12-12T23:15:05.375Z,57450.11
2022-12-12T23:17:36.516Z,57453.28
2022-12-12T23:22:58.016Z,57444.81
2022-12-12T23:25:28.272Z,57421.51
2022-12-12T23:27:58.593Z,57438.46
2022-12-12T23:30:29.532Z,57451.16
2022-12-12T23:32:59.942Z,57451.16
2022-12-12T23:35:30.304Z,57437.39
2022-12-12T23:38:00.595Z,57428.92
2022-12-12T23:40:31.222Z,57428.92
2022-12-12T23:43:01.799Z,57422.57
2022-12-12T23:45:32.240Z,57429.98
2022-12-12T23:48:03.146Z,57429.98
2022-12-12T23:50:34.299Z,57405.62
2022-12-12T23:53:10.321Z,57408.80
2022-12-12T23:55:36.489Z,57427.87
2022-12-12T23:58:06.641Z,57475.52
